Sandoval, Illinois
Current Conditions -  °F | °C
As of 8:15 PM on Sunday 25 Jan 2015 (Local Time) from KENL Reporting Station
Overcast Overcast  
Wind Chill: 23°   Ceiling: 1400
Heat Index: 35°   Visibility: 10mi
Dew Point: 31°   Wind: 21mph
Humidity: 85%   Direction: 360°N
Pressure: 29.85"   Gusts: 30mph
Location:  38.62°N, 89.11°W
Report Text: KENL 260215Z AUTO 36018G26KT 10SM OVC014 02/M01 A2985 RMK AO2 T00151008
Loading
Personal Weather Stations






























Interactive Weather Map New forecast layout! Learn more

10-Day Weather Forecast

Advertisements
Track Severe Weather on mobile